sensor_id;sensor_type;location;lat;lon;timestamp;P1;durP1;ratioP1;P2;durP2;ratioP2
47784;SDS011;35233;55.686;37.848;2023-08-06T00:01:48;1.08;;;0.98;;
47784;SDS011;35233;55.686;37.848;2023-08-06T00:04:14;0.95;;;0.95;;
47784;SDS011;35233;55.686;37.848;2023-08-06T00:06:40;1.30;;;1.20;;
47784;SDS011;35233;55.686;37.848;2023-08-06T00:09:05;0.88;;;0.88;;
47784;SDS011;35233;55.686;37.848;2023-08-06T00:11:31;1.25;;;1.15;;
47784;SDS011;35233;55.686;37.848;2023-08-06T00:13:56;0.93;;;0.93;;
47784;SDS011;35233;55.686;37.848;2023-08-06T00:16:22;0.90;;;0.90;;
47784;SDS011;35233;55.686;37.848;2023-08-06T00:18:48;1.00;;;0.90;;
47784;SDS011;35233;55.686;37.848;2023-08-06T00:21:13;1.20;;;1.10;;
47784;SDS011;35233;55.686;37.848;2023-08-06T00:23:41;1.90;;;1.27;;
47784;SDS011;35233;55.686;37.848;2023-08-06T00:26:07;0.93;;;0.93;;
47784;SDS011;35233;55.686;37.848;2023-08-06T00:28:32;1.40;;;1.30;;
47784;SDS011;35233;55.686;37.848;2023-08-06T00:30:58;1.20;;;1.05;;
47784;SDS011;35233;55.686;37.848;2023-08-06T00:33:24;1.23;;;1.13;;
47784;SDS011;35233;55.686;37.848;2023-08-06T00:35:50;1.13;;;1.02;;
47784;SDS011;35233;55.686;37.848;2023-08-06T00:38:15;1.92;;;1.50;;
47784;SDS011;35233;55.686;37.848;2023-08-06T00:40:41;1.05;;;1.00;;
47784;SDS011;35233;55.686;37.848;2023-08-06T00:43:06;1.30;;;1.20;;
47784;SDS011;35233;55.686;37.848;2023-08-06T00:45:35;1.48;;;1.17;;
47784;SDS011;35233;55.686;37.848;2023-08-06T00:48:02;1.17;;;1.13;;
47784;SDS011;35233;55.686;37.848;2023-08-06T00:50:29;1.52;;;1.33;;
47784;SDS011;35233;55.686;37.848;2023-08-06T00:52:55;1.50;;;1.40;;
47784;SDS011;35233;55.686;37.848;2023-08-06T00:55:21;1.38;;;1.27;;
47784;SDS011;35233;55.686;37.848;2023-08-06T00:57:47;1.40;;;1.30;;
47784;SDS011;35233;55.686;37.848;2023-08-06T01:00:13;1.17;;;1.08;;
47784;SDS011;35233;55.686;37.848;2023-08-06T01:02:39;1.15;;;1.13;;
47784;SDS011;35233;55.686;37.848;2023-08-06T01:05:04;1.70;;;1.10;;
47784;SDS011;35233;55.686;37.848;2023-08-06T01:10:27;1.35;;;1.25;;
47784;SDS011;35233;55.686;37.848;2023-08-06T01:15:43;1.35;;;1.17;;
47784;SDS011;35233;55.686;37.848;2023-08-06T01:18:12;1.58;;;1.48;;
47784;SDS011;35233;55.686;37.848;2023-08-06T01:20:38;1.63;;;1.30;;
47784;SDS011;35233;55.686;37.848;2023-08-06T01:23:04;1.42;;;1.25;;
47784;SDS011;35233;55.686;37.848;2023-08-06T01:25:30;1.23;;;1.13;;
47784;SDS011;35233;55.686;37.848;2023-08-06T01:28:27;1.45;;;1.30;;
47784;SDS011;35233;55.686;37.848;2023-08-06T01:31:01;1.75;;;1.42;;
47784;SDS011;35233;55.686;37.848;2023-08-06T01:33:32;1.75;;;1.40;;
47784;SDS011;35233;55.686;37.848;2023-08-06T01:35:59;1.83;;;1.40;;
47784;SDS011;35233;55.686;37.848;2023-08-06T01:38:26;1.40;;;1.30;;
47784;SDS011;35233;55.686;37.848;2023-08-06T01:40:53;1.95;;;1.40;;
47784;SDS011;35233;55.686;37.848;2023-08-06T01:43:19;1.63;;;1.40;;
47784;SDS011;35233;55.686;37.848;2023-08-06T01:45:44;1.60;;;1.50;;
47784;SDS011;35233;55.686;37.848;2023-08-06T01:48:10;1.67;;;1.58;;
47784;SDS011;35233;55.686;37.848;2023-08-06T01:50:35;1.33;;;1.23;;
47784;SDS011;35233;55.686;37.848;2023-08-06T01:53:01;1.45;;;1.33;;
47784;SDS011;35233;55.686;37.848;2023-08-06T01:55:26;1.88;;;1.40;;
47784;SDS011;35233;55.686;37.848;2023-08-06T01:57:51;1.92;;;1.60;;
47784;SDS011;35233;55.686;37.848;2023-08-06T02:00:17;1.38;;;1.27;;
47784;SDS011;35233;55.686;37.848;2023-08-06T02:02:42;1.60;;;1.50;;
47784;SDS011;35233;55.686;37.848;2023-08-06T02:05:08;1.50;;;1.40;;
47784;SDS011;35233;55.686;37.848;2023-08-06T02:07:33;1.60;;;1.50;;
47784;SDS011;35233;55.686;37.848;2023-08-06T02:09:59;1.40;;;1.30;;
47784;SDS011;35233;55.686;37.848;2023-08-06T02:12:24;1.40;;;1.30;;
47784;SDS011;35233;55.686;37.848;2023-08-06T02:14:50;1.55;;;1.45;;
47784;SDS011;35233;55.686;37.848;2023-08-06T02:17:15;1.75;;;1.58;;
47784;SDS011;35233;55.686;37.848;2023-08-06T02:19:41;1.70;;;1.60;;
47784;SDS011;35233;55.686;37.848;2023-08-06T02:22:08;1.60;;;1.50;;
47784;SDS011;35233;55.686;37.848;2023-08-06T02:24:33;1.63;;;1.52;;
47784;SDS011;35233;55.686;37.848;2023-08-06T02:26:59;1.83;;;1.60;;
47784;SDS011;35233;55.686;37.848;2023-08-06T02:29:24;2.10;;;1.80;;
47784;SDS011;35233;55.686;37.848;2023-08-06T02:31:50;1.50;;;1.35;;
47784;SDS011;35233;55.686;37.848;2023-08-06T02:34:15;1.60;;;1.42;;
47784;SDS011;35233;55.686;37.848;2023-08-06T02:36:41;1.58;;;1.48;;
47784;SDS011;35233;55.686;37.848;2023-08-06T02:39:06;1.67;;;1.58;;
47784;SDS011;35233;55.686;37.848;2023-08-06T02:41:32;1.60;;;1.50;;
47784;SDS011;35233;55.686;37.848;2023-08-06T02:43:57;1.73;;;1.63;;
47784;SDS011;35233;55.686;37.848;2023-08-06T02:46:23;1.98;;;1.60;;
47784;SDS011;35233;55.686;37.848;2023-08-06T02:48:48;1.85;;;1.70;;
47784;SDS011;35233;55.686;37.848;2023-08-06T02:51:14;2.03;;;1.67;;
47784;SDS011;35233;55.686;37.848;2023-08-06T02:53:39;1.60;;;1.50;;
47784;SDS011;35233;55.686;37.848;2023-08-06T02:56:05;1.60;;;1.50;;
47784;SDS011;35233;55.686;37.848;2023-08-06T02:58:30;1.88;;;1.70;;
47784;SDS011;35233;55.686;37.848;2023-08-06T03:01:03;1.50;;;1.40;;
47784;SDS011;35233;55.686;37.848;2023-08-06T03:03:30;1.80;;;1.65;;
47784;SDS011;35233;55.686;37.848;2023-08-06T03:05:56;1.77;;;1.67;;
47784;SDS011;35233;55.686;37.848;2023-08-06T03:08:22;2.05;;;1.80;;
47784;SDS011;35233;55.686;37.848;2023-08-06T03:10:48;2.05;;;1.85;;
47784;SDS011;35233;55.686;37.848;2023-08-06T03:13:14;2.83;;;1.50;;
47784;SDS011;35233;55.686;37.848;2023-08-06T03:15:40;2.08;;;1.80;;
47784;SDS011;35233;55.686;37.848;2023-08-06T03:18:06;1.83;;;1.63;;
47784;SDS011;35233;55.686;37.848;2023-08-06T03:20:32;1.73;;;1.60;;
47784;SDS011;35233;55.686;37.848;2023-08-06T03:22:58;1.58;;;1.40;;
47784;SDS011;35233;55.686;37.848;2023-08-06T03:25:23;1.90;;;1.70;;
47784;SDS011;35233;55.686;37.848;2023-08-06T03:27:49;1.90;;;1.70;;
47784;SDS011;35233;55.686;37.848;2023-08-06T03:30:14;1.70;;;1.60;;
47784;SDS011;35233;55.686;37.848;2023-08-06T03:32:40;1.88;;;1.70;;
47784;SDS011;35233;55.686;37.848;2023-08-06T03:35:06;1.65;;;1.50;;
47784;SDS011;35233;55.686;37.848;2023-08-06T03:37:31;2.25;;;1.77;;
47784;SDS011;35233;55.686;37.848;2023-08-06T03:39:57;1.80;;;1.70;;
47784;SDS011;35233;55.686;37.848;2023-08-06T03:42:22;1.90;;;1.67;;
47784;SDS011;35233;55.686;37.848;2023-08-06T03:44:48;1.85;;;1.60;;
47784;SDS011;35233;55.686;37.848;2023-08-06T03:47:13;1.85;;;1.70;;
47784;SDS011;35233;55.686;37.848;2023-08-06T03:49:39;1.58;;;1.48;;
47784;SDS011;35233;55.686;37.848;2023-08-06T03:52:05;1.85;;;1.60;;
47784;SDS011;35233;55.686;37.848;2023-08-06T03:54:31;1.90;;;1.60;;
47784;SDS011;35233;55.686;37.848;2023-08-06T03:56:56;2.40;;;1.60;;
47784;SDS011;35233;55.686;37.848;2023-08-06T03:59:22;1.88;;;1.60;;
47784;SDS011;35233;55.686;37.848;2023-08-06T04:01:47;1.90;;;1.70;;
47784;SDS011;35233;55.686;37.848;2023-08-06T04:04:13;2.22;;;1.73;;
47784;SDS011;35233;55.686;37.848;2023-08-06T04:06:38;2.05;;;1.83;;
47784;SDS011;35233;55.686;37.848;2023-08-06T04:09:04;2.15;;;1.65;;
47784;SDS011;35233;55.686;37.848;2023-08-06T04:11:29;1.92;;;1.60;;
47784;SDS011;35233;55.686;37.848;2023-08-06T04:13:55;1.63;;;1.52;;
47784;SDS011;35233;55.686;37.848;2023-08-06T04:16:20;1.70;;;1.60;;
47784;SDS011;35233;55.686;37.848;2023-08-06T04:18:46;1.50;;;1.40;;
47784;SDS011;35233;55.686;37.848;2023-08-06T04:21:12;1.55;;;1.45;;
47784;SDS011;35233;55.686;37.848;2023-08-06T04:23:37;1.80;;;1.70;;
47784;SDS011;35233;55.686;37.848;2023-08-06T04:26:03;1.67;;;1.55;;
47784;SDS011;35233;55.686;37.848;2023-08-06T04:28:28;2.00;;;1.80;;
47784;SDS011;35233;55.686;37.848;2023-08-06T04:30:54;2.28;;;1.98;;
47784;SDS011;35233;55.686;37.848;2023-08-06T04:33:20;2.22;;;2.00;;
47784;SDS011;35233;55.686;37.848;2023-08-06T04:35:46;1.98;;;1.80;;
47784;SDS011;35233;55.686;37.848;2023-08-06T04:38:11;2.63;;;2.05;;
47784;SDS011;35233;55.686;37.848;2023-08-06T04:40:37;1.98;;;1.77;;
47784;SDS011;35233;55.686;37.848;2023-08-06T04:43:02;1.85;;;1.70;;
47784;SDS011;35233;55.686;37.848;2023-08-06T04:45:28;1.85;;;1.58;;
47784;SDS011;35233;55.686;37.848;2023-08-06T04:47:53;1.60;;;1.50;;
47784;SDS011;35233;55.686;37.848;2023-08-06T04:50:19;1.85;;;1.65;;
47784;SDS011;35233;55.686;37.848;2023-08-06T04:52:45;2.38;;;1.98;;
47784;SDS011;35233;55.686;37.848;2023-08-06T04:55:10;1.92;;;1.75;;
47784;SDS011;35233;55.686;37.848;2023-08-06T04:57:36;2.03;;;1.80;;
47784;SDS011;35233;55.686;37.848;2023-08-06T05:00:01;2.28;;;1.80;;
47784;SDS011;35233;55.686;37.848;2023-08-06T05:02:27;2.67;;;1.70;;
47784;SDS011;35233;55.686;37.848;2023-08-06T05:04:53;2.60;;;2.15;;
47784;SDS011;35233;55.686;37.848;2023-08-06T05:07:18;2.15;;;1.85;;
47784;SDS011;35233;55.686;37.848;2023-08-06T05:09:44;1.95;;;1.75;;
47784;SDS011;35233;55.686;37.848;2023-08-06T05:12:09;1.95;;;1.40;;
47784;SDS011;35233;55.686;37.848;2023-08-06T05:14:35;1.60;;;1.48;;
47784;SDS011;35233;55.686;37.848;2023-08-06T05:17:01;1.95;;;1.75;;
47784;SDS011;35233;55.686;37.848;2023-08-06T05:19:29;2.60;;;2.00;;
47784;SDS011;35233;55.686;37.848;2023-08-06T05:21:54;2.15;;;1.83;;
47784;SDS011;35233;55.686;37.848;2023-08-06T05:24:20;1.45;;;1.35;;
47784;SDS011;35233;55.686;37.848;2023-08-06T05:26:45;1.83;;;1.73;;
47784;SDS011;35233;55.686;37.848;2023-08-06T05:29:12;1.75;;;1.65;;
47784;SDS011;35233;55.686;37.848;2023-08-06T05:31:38;2.15;;;1.60;;
47784;SDS011;35233;55.686;37.848;2023-08-06T05:34:03;1.75;;;1.63;;
47784;SDS011;35233;55.686;37.848;2023-08-06T05:36:29;1.90;;;1.80;;
47784;SDS011;35233;55.686;37.848;2023-08-06T05:38:54;1.88;;;1.60;;
47784;SDS011;35233;55.686;37.848;2023-08-06T05:41:20;2.45;;;1.45;;
47784;SDS011;35233;55.686;37.848;2023-08-06T05:43:45;1.83;;;1.67;;
47784;SDS011;35233;55.686;37.848;2023-08-06T05:46:11;1.95;;;1.75;;
47784;SDS011;35233;55.686;37.848;2023-08-06T05:48:36;2.50;;;2.05;;
47784;SDS011;35233;55.686;37.848;2023-08-06T05:51:02;1.88;;;1.67;;
47784;SDS011;35233;55.686;37.848;2023-08-06T05:53:27;1.75;;;1.50;;
47784;SDS011;35233;55.686;37.848;2023-08-06T05:55:53;1.98;;;1.75;;
47784;SDS011;35233;55.686;37.848;2023-08-06T05:58:18;1.92;;;1.73;;
47784;SDS011;35233;55.686;37.848;2023-08-06T06:00:45;1.88;;;1.67;;
47784;SDS011;35233;55.686;37.848;2023-08-06T06:03:10;2.40;;;1.90;;
47784;SDS011;35233;55.686;37.848;2023-08-06T06:05:39;1.77;;;1.45;;
47784;SDS011;35233;55.686;37.848;2023-08-06T06:08:05;1.67;;;1.58;;
47784;SDS011;35233;55.686;37.848;2023-08-06T06:10:30;2.08;;;1.60;;
47784;SDS011;35233;55.686;37.848;2023-08-06T06:12:56;1.90;;;1.70;;
47784;SDS011;35233;55.686;37.848;2023-08-06T06:15:21;1.77;;;1.60;;
47784;SDS011;35233;55.686;37.848;2023-08-06T06:17:47;1.83;;;1.60;;
47784;SDS011;35233;55.686;37.848;2023-08-06T06:20:12;1.98;;;1.60;;
47784;SDS011;35233;55.686;37.848;2023-08-06T06:22:38;1.88;;;1.67;;
47784;SDS011;35233;55.686;37.848;2023-08-06T06:25:04;2.15;;;1.70;;
47784;SDS011;35233;55.686;37.848;2023-08-06T06:27:30;1.60;;;1.50;;
47784;SDS011;35233;55.686;37.848;2023-08-06T06:29:55;1.80;;;1.70;;
47784;SDS011;35233;55.686;37.848;2023-08-06T06:32:21;2.10;;;1.90;;
47784;SDS011;35233;55.686;37.848;2023-08-06T06:34:47;1.88;;;1.70;;
47784;SDS011;35233;55.686;37.848;2023-08-06T06:37:12;2.28;;;1.67;;
47784;SDS011;35233;55.686;37.848;2023-08-06T06:39:38;1.92;;;1.73;;
47784;SDS011;35233;55.686;37.848;2023-08-06T06:42:04;1.92;;;1.80;;
47784;SDS011;35233;55.686;37.848;2023-08-06T06:44:30;1.83;;;1.70;;
47784;SDS011;35233;55.686;37.848;2023-08-06T06:46:55;1.73;;;1.63;;
47784;SDS011;35233;55.686;37.848;2023-08-06T06:49:21;2.10;;;1.80;;
47784;SDS011;35233;55.686;37.848;2023-08-06T06:51:46;2.03;;;1.83;;
47784;SDS011;35233;55.686;37.848;2023-08-06T06:54:12;1.75;;;1.65;;
47784;SDS011;35233;55.686;37.848;2023-08-06T06:56:37;2.15;;;1.73;;
47784;SDS011;35233;55.686;37.848;2023-08-06T06:59:03;2.03;;;1.83;;
47784;SDS011;35233;55.686;37.848;2023-08-06T07:01:28;1.80;;;1.70;;
47784;SDS011;35233;55.686;37.848;2023-08-06T07:03:54;2.00;;;1.80;;
47784;SDS011;35233;55.686;37.848;2023-08-06T07:06:19;1.70;;;1.60;;
47784;SDS011;35233;55.686;37.848;2023-08-06T07:08:45;2.80;;;1.80;;
47784;SDS011;35233;55.686;37.848;2023-08-06T07:11:10;1.80;;;1.65;;
47784;SDS011;35233;55.686;37.848;2023-08-06T07:13:36;1.67;;;1.58;;
47784;SDS011;35233;55.686;37.848;2023-08-06T07:16:02;2.10;;;1.77;;
47784;SDS011;35233;55.686;37.848;2023-08-06T07:18:28;2.03;;;1.80;;
47784;SDS011;35233;55.686;37.848;2023-08-06T07:20:54;1.67;;;1.58;;
47784;SDS011;35233;55.686;37.848;2023-08-06T07:23:24;1.92;;;1.73;;
47784;SDS011;35233;55.686;37.848;2023-08-06T07:25:50;1.83;;;1.60;;
47784;SDS011;35233;55.686;37.848;2023-08-06T07:28:16;1.85;;;1.60;;
47784;SDS011;35233;55.686;37.848;2023-08-06T07:30:42;1.90;;;1.70;;
47784;SDS011;35233;55.686;37.848;2023-08-06T07:33:08;1.70;;;1.60;;
47784;SDS011;35233;55.686;37.848;2023-08-06T07:35:34;2.13;;;1.73;;
47784;SDS011;35233;55.686;37.848;2023-08-06T07:38:00;2.13;;;1.63;;
47784;SDS011;35233;55.686;37.848;2023-08-06T07:40:26;2.00;;;1.70;;
47784;SDS011;35233;55.686;37.848;2023-08-06T07:42:51;2.08;;;1.70;;
47784;SDS011;35233;55.686;37.848;2023-08-06T07:45:17;1.52;;;1.42;;
47784;SDS011;35233;55.686;37.848;2023-08-06T07:47:42;2.30;;;2.10;;
47784;SDS011;35233;55.686;37.848;2023-08-06T07:50:08;2.05;;;1.85;;
47784;SDS011;35233;55.686;37.848;2023-08-06T07:52:34;1.45;;;1.35;;
47784;SDS011;35233;55.686;37.848;2023-08-06T07:55:00;2.10;;;1.90;;
47784;SDS011;35233;55.686;37.848;2023-08-06T07:57:29;1.83;;;1.73;;
47784;SDS011;35233;55.686;37.848;2023-08-06T07:59:55;1.90;;;1.70;;
47784;SDS011;35233;55.686;37.848;2023-08-06T08:02:21;1.92;;;1.75;;
47784;SDS011;35233;55.686;37.848;2023-08-06T08:04:46;2.40;;;1.83;;
47784;SDS011;35233;55.686;37.848;2023-08-06T08:07:12;2.20;;;2.00;;
47784;SDS011;35233;55.686;37.848;2023-08-06T08:09:38;2.60;;;2.10;;
47784;SDS011;35233;55.686;37.848;2023-08-06T08:12:04;1.67;;;1.58;;
47784;SDS011;35233;55.686;37.848;2023-08-06T08:14:29;2.70;;;1.80;;
47784;SDS011;35233;55.686;37.848;2023-08-06T08:17:00;2.15;;;1.92;;
47784;SDS011;35233;55.686;37.848;2023-08-06T08:19:27;2.17;;;1.80;;
47784;SDS011;35233;55.686;37.848;2023-08-06T08:21:53;2.45;;;1.88;;
47784;SDS011;35233;55.686;37.848;2023-08-06T08:24:19;2.70;;;2.10;;
47784;SDS011;35233;55.686;37.848;2023-08-06T08:26:45;1.92;;;1.73;;
47784;SDS011;35233;55.686;37.848;2023-08-06T08:29:10;2.05;;;1.85;;
47784;SDS011;35233;55.686;37.848;2023-08-06T08:31:36;1.90;;;1.70;;
47784;SDS011;35233;55.686;37.848;2023-08-06T08:34:04;3.03;;;1.90;;
47784;SDS011;35233;55.686;37.848;2023-08-06T08:36:31;2.42;;;2.00;;
47784;SDS011;35233;55.686;37.848;2023-08-06T08:38:56;2.15;;;1.88;;
47784;SDS011;35233;55.686;37.848;2023-08-06T08:41:22;2.65;;;1.55;;
47784;SDS011;35233;55.686;37.848;2023-08-06T08:43:51;2.10;;;1.90;;
47784;SDS011;35233;55.686;37.848;2023-08-06T08:46:17;2.10;;;1.77;;
47784;SDS011;35233;55.686;37.848;2023-08-06T08:48:44;2.50;;;1.80;;
47784;SDS011;35233;55.686;37.848;2023-08-06T08:51:10;2.13;;;1.80;;
47784;SDS011;35233;55.686;37.848;2023-08-06T08:53:37;1.90;;;1.80;;
47784;SDS011;35233;55.686;37.848;2023-08-06T08:56:05;2.22;;;1.83;;
47784;SDS011;35233;55.686;37.848;2023-08-06T08:58:31;2.20;;;1.95;;
47784;SDS011;35233;55.686;37.848;2023-08-06T09:00:56;2.42;;;1.80;;
47784;SDS011;35233;55.686;37.848;2023-08-06T09:03:23;2.10;;;1.90;;
47784;SDS011;35233;55.686;37.848;2023-08-06T09:05:51;1.67;;;1.58;;
47784;SDS011;35233;55.686;37.848;2023-08-06T09:08:21;2.10;;;1.90;;
47784;SDS011;35233;55.686;37.848;2023-08-06T09:10:49;2.10;;;1.90;;
47784;SDS011;35233;55.686;37.848;2023-08-06T09:13:17;2.13;;;1.80;;
47784;SDS011;35233;55.686;37.848;2023-08-06T09:15:43;2.08;;;1.80;;
47784;SDS011;35233;55.686;37.848;2023-08-06T09:18:12;2.00;;;1.80;;
47784;SDS011;35233;55.686;37.848;2023-08-06T09:20:38;2.83;;;2.17;;
47784;SDS011;35233;55.686;37.848;2023-08-06T09:23:07;2.78;;;2.08;;
47784;SDS011;35233;55.686;37.848;2023-08-06T09:25:36;2.30;;;1.90;;
47784;SDS011;35233;55.686;37.848;2023-08-06T09:28:06;3.10;;;2.13;;
47784;SDS011;35233;55.686;37.848;2023-08-06T09:30:33;2.83;;;2.35;;
47784;SDS011;35233;55.686;37.848;2023-08-06T09:32:59;1.67;;;1.58;;
47784;SDS011;35233;55.686;37.848;2023-08-06T09:35:29;1.98;;;1.83;;
47784;SDS011;35233;55.686;37.848;2023-08-06T09:38:04;2.53;;;2.10;;
47784;SDS011;35233;55.686;37.848;2023-08-06T09:40:35;3.10;;;2.00;;
47784;SDS011;35233;55.686;37.848;2023-08-06T09:43:01;2.10;;;1.90;;
47784;SDS011;35233;55.686;37.848;2023-08-06T09:45:45;2.47;;;2.25;;
47784;SDS011;35233;55.686;37.848;2023-08-06T09:48:11;2.35;;;1.95;;
47784;SDS011;35233;55.686;37.848;2023-08-06T09:50:37;2.40;;;2.13;;
47784;SDS011;35233;55.686;37.848;2023-08-06T09:53:04;2.55;;;2.20;;
47784;SDS011;35233;55.686;37.848;2023-08-06T09:55:30;2.50;;;2.30;;
47784;SDS011;35233;55.686;37.848;2023-08-06T09:57:58;2.08;;;1.88;;
47784;SDS011;35233;55.686;37.848;2023-08-06T10:00:24;3.13;;;2.22;;
47784;SDS011;35233;55.686;37.848;2023-08-06T10:02:51;2.60;;;2.05;;
47784;SDS011;35233;55.686;37.848;2023-08-06T10:05:21;2.10;;;1.85;;
47784;SDS011;35233;55.686;37.848;2023-08-06T10:07:47;2.15;;;1.95;;
47784;SDS011;35233;55.686;37.848;2023-08-06T10:10:15;2.92;;;1.90;;
47784;SDS011;35233;55.686;37.848;2023-08-06T10:12:44;1.90;;;1.70;;
47784;SDS011;35233;55.686;37.848;2023-08-06T10:15:15;2.10;;;1.90;;
47784;SDS011;35233;55.686;37.848;2023-08-06T10:17:46;2.17;;;1.95;;
47784;SDS011;35233;55.686;37.848;2023-08-06T10:20:15;2.38;;;2.03;;
47784;SDS011;35233;55.686;37.848;2023-08-06T10:22:43;2.25;;;2.00;;
47784;SDS011;35233;55.686;37.848;2023-08-06T10:25:10;2.17;;;1.98;;
47784;SDS011;35233;55.686;37.848;2023-08-06T10:30:21;2.20;;;2.00;;
47784;SDS011;35233;55.686;37.848;2023-08-06T10:32:57;2.75;;;1.95;;
47784;SDS011;35233;55.686;37.848;2023-08-06T10:38:10;2.55;;;2.00;;
47784;SDS011;35233;55.686;37.848;2023-08-06T10:40:48;2.50;;;2.20;;
47784;SDS011;35233;55.686;37.848;2023-08-06T10:43:34;2.42;;;1.98;;
47784;SDS011;35233;55.686;37.848;2023-08-06T10:46:11;2.10;;;1.90;;
47784;SDS011;35233;55.686;37.848;2023-08-06T10:48:46;2.38;;;2.00;;
47784;SDS011;35233;55.686;37.848;2023-08-06T10:51:13;2.20;;;2.00;;
47784;SDS011;35233;55.686;37.848;2023-08-06T10:53:44;2.00;;;1.80;;
47784;SDS011;35233;55.686;37.848;2023-08-06T10:56:14;2.42;;;2.00;;
47784;SDS011;35233;55.686;37.848;2023-08-06T10:58:45;2.17;;;1.98;;
47784;SDS011;35233;55.686;37.848;2023-08-06T11:01:11;1.95;;;1.80;;
47784;SDS011;35233;55.686;37.848;2023-08-06T11:03:38;2.20;;;2.00;;
47784;SDS011;35233;55.686;37.848;2023-08-06T11:06:04;2.33;;;2.03;;
47784;SDS011;35233;55.686;37.848;2023-08-06T11:08:37;2.50;;;1.90;;
47784;SDS011;35233;55.686;37.848;2023-08-06T11:11:10;1.85;;;1.70;;
47784;SDS011;35233;55.686;37.848;2023-08-06T11:13:38;2.35;;;2.00;;
47784;SDS011;35233;55.686;37.848;2023-08-06T11:16:07;2.95;;;2.10;;
47784;SDS011;35233;55.686;37.848;2023-08-06T11:18:34;2.30;;;2.10;;
47784;SDS011;35233;55.686;37.848;2023-08-06T11:20:59;2.30;;;2.10;;
47784;SDS011;35233;55.686;37.848;2023-08-06T11:23:26;2.72;;;2.10;;
47784;SDS011;35233;55.686;37.848;2023-08-06T11:25:53;2.20;;;2.00;;
47784;SDS011;35233;55.686;37.848;2023-08-06T11:28:20;2.65;;;2.20;;
47784;SDS011;35233;55.686;37.848;2023-08-06T11:30:49;2.80;;;2.08;;
47784;SDS011;35233;55.686;37.848;2023-08-06T11:33:19;2.03;;;1.83;;
47784;SDS011;35233;55.686;37.848;2023-08-06T11:35:47;2.28;;;2.00;;
47784;SDS011;35233;55.686;37.848;2023-08-06T11:38:13;2.17;;;1.90;;
47784;SDS011;35233;55.686;37.848;2023-08-06T11:40:39;2.05;;;1.90;;
47784;SDS011;35233;55.686;37.848;2023-08-06T11:43:07;2.30;;;2.10;;
47784;SDS011;35233;55.686;37.848;2023-08-06T11:45:37;2.42;;;2.08;;
47784;SDS011;35233;55.686;37.848;2023-08-06T11:48:02;2.50;;;2.15;;
47784;SDS011;35233;55.686;37.848;2023-08-06T11:50:28;2.33;;;1.98;;
47784;SDS011;35233;55.686;37.848;2023-08-06T11:52:59;2.08;;;1.90;;
47784;SDS011;35233;55.686;37.848;2023-08-06T11:55:26;2.10;;;1.85;;
47784;SDS011;35233;55.686;37.848;2023-08-06T11:57:53;2.35;;;1.95;;
47784;SDS011;35233;55.686;37.848;2023-08-06T12:00:20;2.67;;;2.13;;
47784;SDS011;35233;55.686;37.848;2023-08-06T12:02:48;2.45;;;2.17;;
47784;SDS011;35233;55.686;37.848;2023-08-06T12:05:20;2.15;;;1.95;;
47784;SDS011;35233;55.686;37.848;2023-08-06T12:07:51;1.88;;;1.65;;
47784;SDS011;35233;55.686;37.848;2023-08-06T12:10:18;2.35;;;2.00;;
47784;SDS011;35233;55.686;37.848;2023-08-06T12:12:45;2.47;;;2.20;;
47784;SDS011;35233;55.686;37.848;2023-08-06T12:15:11;2.08;;;1.88;;
47784;SDS011;35233;55.686;37.848;2023-08-06T12:17:37;3.10;;;2.13;;
47784;SDS011;35233;55.686;37.848;2023-08-06T12:20:03;2.25;;;2.05;;
47784;SDS011;35233;55.686;37.848;2023-08-06T12:22:31;2.35;;;2.00;;
47784;SDS011;35233;55.686;37.848;2023-08-06T12:25:00;2.17;;;1.95;;
47784;SDS011;35233;55.686;37.848;2023-08-06T12:27:27;2.22;;;1.98;;
47784;SDS011;35233;55.686;37.848;2023-08-06T12:29:52;2.20;;;2.00;;
47784;SDS011;35233;55.686;37.848;2023-08-06T12:32:18;2.10;;;1.90;;
47784;SDS011;35233;55.686;37.848;2023-08-06T12:34:44;2.30;;;2.03;;
47784;SDS011;35233;55.686;37.848;2023-08-06T12:37:09;2.13;;;1.92;;
47784;SDS011;35233;55.686;37.848;2023-08-06T12:39:35;2.25;;;1.92;;
47784;SDS011;35233;55.686;37.848;2023-08-06T12:42:04;1.88;;;1.75;;
47784;SDS011;35233;55.686;37.848;2023-08-06T12:44:30;2.20;;;2.00;;
47784;SDS011;35233;55.686;37.848;2023-08-06T12:46:57;2.10;;;1.95;;
47784;SDS011;35233;55.686;37.848;2023-08-06T12:49:22;2.22;;;1.98;;
47784;SDS011;35233;55.686;37.848;2023-08-06T12:51:49;1.88;;;1.75;;
47784;SDS011;35233;55.686;37.848;2023-08-06T12:54:16;2.30;;;2.10;;
47784;SDS011;35233;55.686;37.848;2023-08-06T12:56:43;2.10;;;1.90;;
47784;SDS011;35233;55.686;37.848;2023-08-06T12:59:09;2.28;;;2.08;;
47784;SDS011;35233;55.686;37.848;2023-08-06T13:01:34;2.22;;;2.03;;
47784;SDS011;35233;55.686;37.848;2023-08-06T13:04:00;2.42;;;2.10;;
47784;SDS011;35233;55.686;37.848;2023-08-06T13:06:25;2.10;;;1.90;;
47784;SDS011;35233;55.686;37.848;2023-08-06T13:08:51;2.15;;;1.95;;
47784;SDS011;35233;55.686;37.848;2023-08-06T13:11:16;2.45;;;2.20;;
47784;SDS011;35233;55.686;37.848;2023-08-06T13:13:42;2.47;;;2.17;;
47784;SDS011;35233;55.686;37.848;2023-08-06T13:16:07;2.10;;;1.90;;
47784;SDS011;35233;55.686;37.848;2023-08-06T13:18:33;2.15;;;1.95;;
47784;SDS011;35233;55.686;37.848;2023-08-06T13:20:59;2.05;;;1.85;;
47784;SDS011;35233;55.686;37.848;2023-08-06T13:23:24;2.05;;;1.80;;
47784;SDS011;35233;55.686;37.848;2023-08-06T13:25:50;2.25;;;2.05;;
47784;SDS011;35233;55.686;37.848;2023-08-06T13:28:15;1.95;;;1.85;;
47784;SDS011;35233;55.686;37.848;2023-08-06T13:30:41;2.30;;;2.10;;
47784;SDS011;35233;55.686;37.848;2023-08-06T13:33:09;2.25;;;2.00;;
47784;SDS011;35233;55.686;37.848;2023-08-06T13:35:35;2.47;;;1.95;;
47784;SDS011;35233;55.686;37.848;2023-08-06T13:38:01;2.30;;;2.10;;
47784;SDS011;35233;55.686;37.848;2023-08-06T13:40:33;1.92;;;1.70;;
47784;SDS011;35233;55.686;37.848;2023-08-06T13:42:59;2.15;;;1.80;;
47784;SDS011;35233;55.686;37.848;2023-08-06T13:45:25;1.92;;;1.80;;
47784;SDS011;35233;55.686;37.848;2023-08-06T13:47:50;2.50;;;2.05;;
47784;SDS011;35233;55.686;37.848;2023-08-06T13:50:16;1.90;;;1.80;;
47784;SDS011;35233;55.686;37.848;2023-08-06T13:52:42;2.15;;;1.95;;
47784;SDS011;35233;55.686;37.848;2023-08-06T13:55:08;2.38;;;2.03;;
47784;SDS011;35233;55.686;37.848;2023-08-06T13:57:34;1.92;;;1.83;;
47784;SDS011;35233;55.686;37.848;2023-08-06T14:00:00;2.20;;;2.00;;
47784;SDS011;35233;55.686;37.848;2023-08-06T14:02:26;2.15;;;1.95;;
47784;SDS011;35233;55.686;37.848;2023-08-06T14:04:54;2.13;;;1.92;;
47784;SDS011;35233;55.686;37.848;2023-08-06T14:07:20;2.20;;;2.00;;
47784;SDS011;35233;55.686;37.848;2023-08-06T14:09:45;2.33;;;2.10;;
47784;SDS011;35233;55.686;37.848;2023-08-06T14:12:12;2.45;;;2.03;;
47784;SDS011;35233;55.686;37.848;2023-08-06T14:14:38;2.45;;;2.00;;
47784;SDS011;35233;55.686;37.848;2023-08-06T14:17:03;2.45;;;2.08;;
47784;SDS011;35233;55.686;37.848;2023-08-06T14:19:29;2.38;;;2.17;;
47784;SDS011;35233;55.686;37.848;2023-08-06T14:21:55;1.83;;;1.73;;
47784;SDS011;35233;55.686;37.848;2023-08-06T14:24:20;2.00;;;1.80;;
47784;SDS011;35233;55.686;37.848;2023-08-06T14:26:46;2.28;;;2.08;;
47784;SDS011;35233;55.686;37.848;2023-08-06T14:29:11;1.98;;;1.80;;
47784;SDS011;35233;55.686;37.848;2023-08-06T14:31:38;1.98;;;1.77;;
47784;SDS011;35233;55.686;37.848;2023-08-06T14:34:04;2.30;;;2.00;;
47784;SDS011;35233;55.686;37.848;2023-08-06T14:36:30;2.22;;;2.03;;
47784;SDS011;35233;55.686;37.848;2023-08-06T14:38:55;2.22;;;2.03;;
47784;SDS011;35233;55.686;37.848;2023-08-06T14:41:21;2.03;;;1.83;;